Terminal Aerodrome Forecast
Issued by NWS

Home | Current Version | Previous Version | Text Only | Print | Product List | Glossary On
Versions: 1 2 3 4 5 6 7 8 9 10 11 12 13 14 15 16 17 18 19 20 21 22
775
FTUS43 KJKL 102012 AAA
TAFSME
TAF AMD
KSME 102012Z 1020/1118 26010G20KT P6SM VCSH SCT020 BKN030
     FM102100 27007KT P6SM VCSH SCT025 BKN035
     FM102200 27009KT P6SM BKN025
     FM111000 VRB05KT P6SM SCT030=

USA.gov is the U.S. government's official web portal to all federal, state and local government web resources and services.